Time;durP1;ratioP1;P1;durP2;ratioP2;P2;SDS_P1;SDS_P2;PMS_P1;PMS_P2;Temp;Humidity;BMP_temperature;BMP_pressure;BME280_temperature;BME280_humidity;BME280_pressure;Samples;Min_cycle;Max_cycle;Signal;HPM_P1;HPM_P2
2021/05/07 00:01:14;;;;;;;4.97;1.65;;;;;;;;;;5010372;28;20045;-67
2021/05/07 00:03:40;;;;;;;3.65;1.38;;;;;;;;;;5009966;28;20037;-68
2021/05/07 00:06:10;;;;;;;4.00;1.50;;;;;;;;;;5042041;28;20026;-66
2021/05/07 00:08:38;;;;;;;4.45;1.83;;;;;;;;;;5010231;28;20544;-67
2021/05/07 00:11:05;;;;;;;4.80;1.70;;;;;;;;;;5009987;28;20018;-67
2021/05/07 00:13:32;;;;;;;8.88;1.90;;;;;;;;;;5034217;28;20035;-68
2021/05/07 00:15:58;;;;;;;5.32;2.00;;;;;;;;;;5010256;28;20065;-66
2021/05/07 00:18:24;;;;;;;8.07;2.17;;;;;;;;;;5024217;28;20026;-67
2021/05/07 00:20:50;;;;;;;4.35;1.60;;;;;;;;;;5009083;28;20487;-63
2021/05/07 00:23:16;;;;;;;5.72;1.92;;;;;;;;;;5009686;28;20155;-66
2021/05/07 00:25:44;;;;;;;5.80;2.30;;;;;;;;;;5010265;28;20503;-66
2021/05/07 00:28:11;;;;;;;4.53;1.90;;;;;;;;;;5009866;28;20030;-67
2021/05/07 00:30:38;;;;;;;5.65;1.75;;;;;;;;;;5009657;28;20525;-65
2021/05/07 00:33:08;;;;;;;4.35;1.77;;;;;;;;;;5008140;28;20049;-63
2021/05/07 00:35:34;;;;;;;6.43;1.83;;;;;;;;;;5009819;28;20030;-63
2021/05/07 00:38:00;;;;;;;5.30;2.20;;;;;;;;;;5009477;28;20672;-64
2021/05/07 00:40:26;;;;;;;6.07;2.38;;;;;;;;;;5009125;28;20030;-64
2021/05/07 00:42:53;;;;;;;6.40;1.92;;;;;;;;;;5040948;28;20044;-66
2021/05/07 00:45:19;;;;;;;9.77;2.10;;;;;;;;;;5009354;28;20029;-64
2021/05/07 00:47:51;;;;;;;4.85;2.10;;;;;;;;;;5009509;28;20030;-64
2021/05/07 00:50:17;;;;;;;10.63;2.30;;;;;;;;;;5039898;28;20029;-63
2021/05/07 00:52:44;;;;;;;5.15;2.25;;;;;;;;;;5009346;28;20030;-64
2021/05/07 00:55:10;;;;;;;12.57;2.88;;;;;;;;;;5009339;28;20610;-65
2021/05/07 00:57:37;;;;;;;7.50;2.22;;;;;;;;;;5009415;28;20026;-64
2021/05/07 01:00:06;;;;;;;5.50;2.17;;;;;;;;;;5009093;28;20045;-65
2021/05/07 01:02:32;;;;;;;4.95;2.22;;;;;;;;;;5008568;28;20030;-64
2021/05/07 01:04:58;;;;;;;4.68;1.95;;;;;;;;;;5009011;28;20030;-64
2021/05/07 01:07:26;;;;;;;6.47;2.28;;;;;;;;;;5008111;28;20032;-65
2021/05/07 01:09:52;;;;;;;4.78;1.88;;;;;;;;;;4989571;28;20117;-63
2021/05/07 01:12:18;;;;;;;6.10;2.15;;;;;;;;;;4989390;28;20449;-64
2021/05/07 01:14:57;;;;;;;6.10;2.20;;;;;;;;;;4989426;28;20379;-64
2021/05/07 01:17:23;;;;;;;5.65;2.42;;;;;;;;;;4989316;28;20022;-64
2021/05/07 01:19:49;;;;;;;4.90;2.30;;;;;;;;;;4989379;28;20098;-65
2021/05/07 01:22:15;;;;;;;4.38;2.10;;;;;;;;;;4998399;28;20099;-65
2021/05/07 01:24:41;;;;;;;5.32;2.33;;;;;;;;;;5006909;28;20029;-64
2021/05/07 01:27:07;;;;;;;5.78;2.08;;;;;;;;;;5040554;28;20033;-65
2021/05/07 01:29:33;;;;;;;5.82;2.03;;;;;;;;;;5005417;28;20076;-65
2021/05/07 01:31:59;;;;;;;4.82;2.00;;;;;;;;;;5008144;28;20026;-63
2021/05/07 01:34:25;;;;;;;7.25;2.22;;;;;;;;;;5007988;28;20061;-63
2021/05/07 01:36:51;;;;;;;5.50;2.40;;;;;;;;;;5008310;28;20043;-65
2021/05/07 01:39:17;;;;;;;5.95;2.50;;;;;;;;;;5008761;28;20657;-63
2021/05/07 01:41:43;;;;;;;6.32;2.22;;;;;;;;;;5007726;28;20022;-64
2021/05/07 01:44:10;;;;;;;5.40;2.40;;;;;;;;;;5008519;28;20068;-66
2021/05/07 01:46:36;;;;;;;5.40;2.30;;;;;;;;;;5040048;28;20022;-63
2021/05/07 01:49:02;;;;;;;5.70;2.13;;;;;;;;;;5040021;28;20557;-64
2021/05/07 01:51:28;;;;;;;7.70;2.85;;;;;;;;;;5008057;28;20486;-63
2021/05/07 01:53:54;;;;;;;6.80;2.85;;;;;;;;;;5008672;28;20018;-63
2021/05/07 01:56:20;;;;;;;6.18;2.50;;;;;;;;;;5008537;28;20109;-64
2021/05/07 01:58:46;;;;;;;5.15;2.60;;;;;;;;;;5007641;28;20029;-64
2021/05/07 02:01:12;;;;;;;5.22;2.00;;;;;;;;;;5007679;28;20494;-64
2021/05/07 02:03:38;;;;;;;8.60;2.95;;;;;;;;;;5008351;28;20033;-63
2021/05/07 02:06:04;;;;;;;5.00;2.60;;;;;;;;;;5008355;28;20022;-64
2021/05/07 02:08:31;;;;;;;5.25;2.30;;;;;;;;;;5008254;28;20084;-63
2021/05/07 02:10:57;;;;;;;5.90;2.58;;;;;;;;;;5007761;28;20465;-66
2021/05/07 02:13:23;;;;;;;4.75;2.20;;;;;;;;;;5007790;28;20082;-64
2021/05/07 02:15:49;;;;;;;5.43;2.30;;;;;;;;;;5007516;28;20037;-64
2021/05/07 02:18:15;;;;;;;6.32;2.60;;;;;;;;;;5039906;28;20022;-63
2021/05/07 02:20:43;;;;;;;5.90;2.30;;;;;;;;;;5007864;28;20018;-63
2021/05/07 02:23:10;;;;;;;7.43;2.95;;;;;;;;;;5008113;28;20030;-63
2021/05/07 02:25:36;;;;;;;6.53;2.33;;;;;;;;;;5006944;28;20478;-64
2021/05/07 02:28:02;;;;;;;8.05;2.60;;;;;;;;;;5008489;28;20038;-64
2021/05/07 02:30:29;;;;;;;4.90;2.33;;;;;;;;;;5007920;28;20478;-65
2021/05/07 02:32:56;;;;;;;6.53;2.90;;;;;;;;;;5006710;28;20029;-63
2021/05/07 02:35:22;;;;;;;7.13;2.22;;;;;;;;;;5008188;28;20060;-64
2021/05/07 02:37:48;;;;;;;7.97;2.30;;;;;;;;;;5008017;28;20118;-64
2021/05/07 02:40:15;;;;;;;5.50;2.22;;;;;;;;;;5039543;28;20025;-64
2021/05/07 02:42:41;;;;;;;4.85;2.28;;;;;;;;;;5007682;28;20420;-63
2021/05/07 02:45:08;;;;;;;6.50;2.05;;;;;;;;;;5010281;28;20549;-65
2021/05/07 02:47:35;;;;;;;5.50;2.40;;;;;;;;;;5011144;28;20446;-64
2021/05/07 02:50:01;;;;;;;6.43;2.08;;;;;;;;;;5005887;28;20030;-63
2021/05/07 02:52:27;;;;;;;7.30;2.65;;;;;;;;;;5001847;28;20605;-64
2021/05/07 02:54:54;;;;;;;7.30;2.33;;;;;;;;;;5011428;28;20030;-63
2021/05/07 02:57:20;;;;;;;6.15;2.28;;;;;;;;;;5042819;28;20029;-65
2021/05/07 02:59:46;;;;;;;6.57;2.40;;;;;;;;;;5043158;28;20390;-63
2021/05/07 03:02:12;;;;;;;6.25;2.75;;;;;;;;;;5010116;28;20030;-63
2021/05/07 03:04:38;;;;;;;7.45;3.25;;;;;;;;;;5011077;28;20014;-64
2021/05/07 03:07:04;;;;;;;7.38;2.58;;;;;;;;;;5010029;28;20429;-64
2021/05/07 03:09:30;;;;;;;7.20;2.28;;;;;;;;;;5009731;28;20048;-65
2021/05/07 03:11:57;;;;;;;6.30;3.03;;;;;;;;;;5010786;28;20022;-63
2021/05/07 03:14:23;;;;;;;6.60;2.80;;;;;;;;;;4995526;28;20034;-63
2021/05/07 03:16:50;;;;;;;5.18;2.60;;;;;;;;;;5010635;28;20503;-65
2021/05/07 03:19:16;;;;;;;8.10;3.10;;;;;;;;;;5010720;28;20062;-64
2021/05/07 03:21:42;;;;;;;6.53;2.55;;;;;;;;;;5010748;28;20030;-64
2021/05/07 03:24:08;;;;;;;5.53;2.63;;;;;;;;;;5006832;28;20075;-64
2021/05/07 03:26:34;;;;;;;5.28;2.50;;;;;;;;;;5010639;28;20022;-64
2021/05/07 03:29:00;;;;;;;5.40;2.40;;;;;;;;;;5010303;28;20428;-63
2021/05/07 03:31:26;;;;;;;6.00;2.70;;;;;;;;;;4998567;28;20072;-66
2021/05/07 03:33:53;;;;;;;6.18;2.30;;;;;;;;;;5001218;28;20049;-64
2021/05/07 03:36:19;;;;;;;6.28;2.33;;;;;;;;;;5010316;28;20486;-64
2021/05/07 03:38:45;;;;;;;4.47;2.20;;;;;;;;;;5010037;28;20030;-64
2021/05/07 03:41:11;;;;;;;9.07;3.13;;;;;;;;;;5009875;28;20022;-65
2021/05/07 03:43:37;;;;;;;5.63;2.40;;;;;;;;;;5036558;28;20054;-65
2021/05/07 03:46:03;;;;;;;6.20;2.53;;;;;;;;;;4990789;28;20092;-64
2021/05/07 03:48:29;;;;;;;6.28;2.33;;;;;;;;;;4990976;28;20037;-64
2021/05/07 03:50:55;;;;;;;5.55;2.63;;;;;;;;;;4990810;28;20417;-64
2021/05/07 03:53:22;;;;;;;6.93;2.80;;;;;;;;;;4991403;28;20033;-64
2021/05/07 03:55:48;;;;;;;5.65;2.55;;;;;;;;;;5008294;28;20053;-64
2021/05/07 03:58:14;;;;;;;5.75;2.50;;;;;;;;;;5010179;28;20018;-64
2021/05/07 04:00:41;;;;;;;9.07;3.08;;;;;;;;;;5010032;28;20117;-63
2021/05/07 04:03:07;;;;;;;6.80;2.55;;;;;;;;;;5010004;28;20097;-63
2021/05/07 04:05:34;;;;;;;5.65;2.67;;;;;;;;;;5009268;28;20037;-63
2021/05/07 04:08:11;;;;;;;6.43;2.50;;;;;;;;;;4990380;28;20088;-64
2021/05/07 04:10:43;;;;;;;7.70;2.30;;;;;;;;;;5006285;28;20065;-64
2021/05/07 04:15:38;;;;;;;5.88;2.67;;;;;;;;;;5009732;28;20127;-63
2021/05/07 04:18:04;;;;;;;6.47;2.22;;;;;;;;;;5009854;28;20075;-65
2021/05/07 04:20:30;;;;;;;6.10;2.10;;;;;;;;;;5008683;28;20106;-64
2021/05/07 04:22:56;;;;;;;6.88;2.75;;;;;;;;;;5009831;28;20033;-64
2021/05/07 04:25:22;;;;;;;6.65;2.40;;;;;;;;;;5009612;28;20026;-64
2021/05/07 04:27:48;;;;;;;9.23;2.60;;;;;;;;;;5009760;28;20058;-64
2021/05/07 04:30:15;;;;;;;5.80;2.40;;;;;;;;;;5040490;28;20026;-66
2021/05/07 04:32:41;;;;;;;8.98;2.47;;;;;;;;;;5009751;28;20079;-64
2021/05/07 04:35:08;;;;;;;4.28;2.08;;;;;;;;;;5009414;28;20040;-64
2021/05/07 04:37:34;;;;;;;6.80;2.70;;;;;;;;;;5009499;28;20071;-65
2021/05/07 04:40:00;;;;;;;6.38;2.53;;;;;;;;;;5009521;28;20030;-64
2021/05/07 04:42:26;;;;;;;5.78;2.70;;;;;;;;;;5009577;28;20049;-64
2021/05/07 04:44:52;;;;;;;7.53;2.85;;;;;;;;;;5009260;28;20025;-64
2021/05/07 04:47:18;;;;;;;9.95;2.75;;;;;;;;;;5017451;28;20401;-67
2021/05/07 04:49:44;;;;;;;8.07;2.40;;;;;;;;;;5008396;28;20099;-69
2021/05/07 04:52:11;;;;;;;11.82;2.63;;;;;;;;;;5007721;28;20475;-67
2021/05/07 04:54:37;;;;;;;7.55;2.38;;;;;;;;;;5007484;28;20029;-66
2021/05/07 04:57:03;;;;;;;7.15;2.53;;;;;;;;;;5008637;28;20091;-67
2021/05/07 04:59:29;;;;;;;7.95;2.10;;;;;;;;;;5008937;28;20390;-65
2021/05/07 05:01:55;;;;;;;8.73;2.30;;;;;;;;;;5008936;28;20049;-70
2021/05/07 05:04:21;;;;;;;6.85;2.53;;;;;;;;;;5008139;28;20061;-71
2021/05/07 05:06:47;;;;;;;7.22;2.22;;;;;;;;;;5040498;28;20021;-70
2021/05/07 05:09:13;;;;;;;7.45;1.98;;;;;;;;;;5004003;28;20057;-71
2021/05/07 05:11:39;;;;;;;6.05;2.45;;;;;;;;;;4989443;28;20022;-65
2021/05/07 05:14:05;;;;;;;14.20;2.15;;;;;;;;;;4988673;28;20105;-65
2021/05/07 05:16:31;;;;;;;11.70;2.40;;;;;;;;;;4995346;28;20010;-72
2021/05/07 05:18:57;;;;;;;13.50;3.03;;;;;;;;;;5008993;28;20097;-68
2021/05/07 05:21:23;;;;;;;11.02;3.10;;;;;;;;;;5008405;28;20018;-68
2021/05/07 05:23:50;;;;;;;6.85;2.45;;;;;;;;;;5040546;28;20030;-63
2021/05/07 05:26:16;;;;;;;11.27;2.47;;;;;;;;;;5009106;28;20049;-66
2021/05/07 05:28:42;;;;;;;9.63;2.97;;;;;;;;;;5009351;28;20033;-66
2021/05/07 05:31:09;;;;;;;5.35;2.60;;;;;;;;;;5009339;28;20101;-67
2021/05/07 05:33:35;;;;;;;11.90;2.70;;;;;;;;;;5005995;28;20050;-66
2021/05/07 05:36:01;;;;;;;13.35;2.80;;;;;;;;;;5008976;28;20494;-67
2021/05/07 05:38:27;;;;;;;7.78;2.80;;;;;;;;;;5055141;28;20104;-66
2021/05/07 05:40:53;;;;;;;5.75;2.47;;;;;;;;;;5069804;27;20477;-65
2021/05/07 05:43:19;;;;;;;5.22;2.70;;;;;;;;;;5028234;28;20033;-65
2021/05/07 05:45:46;;;;;;;9.23;2.42;;;;;;;;;;5027239;28;20351;-69
2021/05/07 05:48:13;;;;;;;5.97;2.53;;;;;;;;;;5026650;28;20550;-64
2021/05/07 05:50:41;;;;;;;5.00;2.40;;;;;;;;;;5028122;28;20030;-64
2021/05/07 05:53:07;;;;;;;6.40;2.70;;;;;;;;;;5020179;28;20022;-65
2021/05/07 05:55:33;;;;;;;5.35;2.58;;;;;;;;;;5001774;28;20085;-63
2021/05/07 05:58:00;;;;;;;8.18;3.10;;;;;;;;;;4988811;28;20603;-64
2021/05/07 06:00:26;;;;;;;5.32;2.58;;;;;;;;;;4992376;28;20125;-65
2021/05/07 06:02:52;;;;;;;7.75;3.08;;;;;;;;;;5072021;27;20042;-68
2021/05/07 06:05:20;;;;;;;7.65;2.45;;;;;;;;;;5014845;28;20017;-65
2021/05/07 06:07:46;;;;;;;5.88;2.63;;;;;;;;;;5010241;28;20033;-68
2021/05/07 06:10:14;;;;;;;9.43;2.75;;;;;;;;;;5018865;28;20021;-64
2021/05/07 06:12:44;;;;;;;7.90;2.65;;;;;;;;;;5019586;28;20046;-66
2021/05/07 06:15:10;;;;;;;6.03;2.25;;;;;;;;;;5019339;28;20022;-69
2021/05/07 06:17:36;;;;;;;6.65;2.95;;;;;;;;;;5009892;28;20030;-64
2021/05/07 06:20:07;;;;;;;7.00;3.22;;;;;;;;;;5017903;28;20054;-64
2021/05/07 06:22:34;;;;;;;6.65;2.90;;;;;;;;;;5024110;28;20030;-63
2021/05/07 06:25:00;;;;;;;10.20;3.38;;;;;;;;;;5076848;28;20030;-65
2021/05/07 06:27:27;;;;;;;6.28;3.13;;;;;;;;;;5052733;28;20025;-65
2021/05/07 06:29:53;;;;;;;6.45;3.25;;;;;;;;;;5057290;28;20045;-65
2021/05/07 06:32:19;;;;;;;6.70;3.40;;;;;;;;;;5026926;28;20423;-63
2021/05/07 06:34:45;;;;;;;6.18;2.75;;;;;;;;;;5014073;28;20095;-65
2021/05/07 06:37:12;;;;;;;6.82;2.83;;;;;;;;;;5029910;28;20032;-63
2021/05/07 06:39:38;;;;;;;15.80;3.72;;;;;;;;;;5026308;28;20021;-69
2021/05/07 06:42:05;;;;;;;13.23;3.33;;;;;;;;;;5025934;28;20026;-69
2021/05/07 06:44:31;;;;;;;7.93;3.90;;;;;;;;;;5012167;28;20101;-68
2021/05/07 06:46:57;;;;;;;6.95;3.03;;;;;;;;;;5009440;28;20398;-69
2021/05/07 06:49:24;;;;;;;10.18;3.38;;;;;;;;;;5023986;28;20041;-68
2021/05/07 06:51:50;;;;;;;12.95;3.20;;;;;;;;;;5018581;28;20040;-69
2021/05/07 06:54:16;;;;;;;8.73;3.42;;;;;;;;;;5035459;28;20026;-68
2021/05/07 06:56:42;;;;;;;7.85;3.22;;;;;;;;;;5020344;28;20524;-68
2021/05/07 06:59:08;;;;;;;6.97;3.38;;;;;;;;;;5080487;28;20084;-69
2021/05/07 07:01:35;;;;;;;7.50;2.67;;;;;;;;;;5044009;28;20040;-69
2021/05/07 07:04:01;;;;;;;10.95;3.25;;;;;;;;;;5020837;28;20067;-68
2021/05/07 07:06:28;;;;;;;7.53;2.60;;;;;;;;;;5022128;28;20022;-68
2021/05/07 07:08:54;;;;;;;8.15;3.55;;;;;;;;;;5017765;28;20033;-68
2021/05/07 07:11:20;;;;;;;7.47;3.25;;;;;;;;;;5023644;28;20032;-69
2021/05/07 07:13:47;;;;;;;9.95;3.25;;;;;;;;;;5031933;28;20030;-68
2021/05/07 07:16:14;;;;;;;12.32;3.38;;;;;;;;;;5114004;28;20086;-69
2021/05/07 07:18:41;;;;;;;6.72;2.90;;;;;;;;;;5111692;28;20498;-68
2021/05/07 07:21:08;;;;;;;6.82;2.58;;;;;;;;;;5052351;28;20482;-70
2021/05/07 07:23:34;;;;;;;6.13;2.97;;;;;;;;;;5009923;28;20022;-69
2021/05/07 07:26:00;;;;;;;4.90;2.10;;;;;;;;;;5027795;28;20136;-69
2021/05/07 07:28:26;;;;;;;7.22;2.85;;;;;;;;;;5021813;28;20047;-68
2021/05/07 07:30:52;;;;;;;7.47;3.45;;;;;;;;;;5063377;28;20343;-69
2021/05/07 07:33:18;;;;;;;6.10;3.25;;;;;;;;;;5013967;28;20051;-69
2021/05/07 07:35:44;;;;;;;11.05;3.22;;;;;;;;;;5016378;28;20034;-68
2021/05/07 07:38:10;;;;;;;6.70;2.65;;;;;;;;;;5080106;27;20109;-69
2021/05/07 07:40:37;;;;;;;7.68;2.95;;;;;;;;;;5055365;28;20031;-68
2021/05/07 07:43:03;;;;;;;6.43;3.10;;;;;;;;;;5060855;28;20036;-68
2021/05/07 07:45:29;;;;;;;8.40;3.63;;;;;;;;;;5022786;28;20025;-68
2021/05/07 07:47:55;;;;;;;7.03;2.47;;;;;;;;;;5098314;28;20024;-69
2021/05/07 07:50:21;;;;;;;9.38;2.92;;;;;;;;;;5015542;28;20024;-70
2021/05/07 07:52:47;;;;;;;7.10;2.50;;;;;;;;;;5020894;28;20477;-70
2021/05/07 07:55:14;;;;;;;6.60;2.95;;;;;;;;;;5024547;28;20083;-69
2021/05/07 07:57:41;;;;;;;5.85;2.58;;;;;;;;;;5024291;28;20082;-68
2021/05/07 08:00:08;;;;;;;6.68;2.53;;;;;;;;;;5011426;28;20095;-68
2021/05/07 08:02:34;;;;;;;6.00;2.80;;;;;;;;;;5053823;28;20099;-69
2021/05/07 08:05:00;;;;;;;6.57;3.05;;;;;;;;;;5062634;28;20030;-68
2021/05/07 08:07:26;;;;;;;4.47;2.33;;;;;;;;;;5019133;28;20045;-68
2021/05/07 08:09:52;;;;;;;4.88;2.35;;;;;;;;;;5010708;28;20482;-68
2021/05/07 08:12:18;;;;;;;5.75;2.58;;;;;;;;;;5018879;28;20017;-69
2021/05/07 08:14:44;;;;;;;5.30;2.60;;;;;;;;;;5020956;28;20481;-68
2021/05/07 08:17:10;;;;;;;6.35;2.28;;;;;;;;;;5020045;28;20017;-68
2021/05/07 08:19:36;;;;;;;7.20;2.42;;;;;;;;;;5089293;28;20031;-69
2021/05/07 08:22:03;;;;;;;11.32;2.38;;;;;;;;;;5011602;28;20033;-69
2021/05/07 08:24:29;;;;;;;4.72;2.17;;;;;;;;;;5014408;28;20021;-68
2021/05/07 08:26:58;;;;;;;5.78;1.85;;;;;;;;;;5023390;28;20106;-69
2021/05/07 08:29:24;;;;;;;6.32;1.80;;;;;;;;;;4997014;28;20042;-69
2021/05/07 08:31:50;;;;;;;4.57;2.15;;;;;;;;;;5021394;28;20102;-68
2021/05/07 08:34:16;;;;;;;6.50;2.03;;;;;;;;;;5011007;28;20110;-69
2021/05/07 08:36:42;;;;;;;5.15;2.20;;;;;;;;;;5057740;28;20389;-68
2021/05/07 08:39:08;;;;;;;5.75;2.13;;;;;;;;;;5056211;28;20033;-69
2021/05/07 08:41:36;;;;;;;3.92;1.80;;;;;;;;;;5022464;28;20013;-69
2021/05/07 08:44:02;;;;;;;5.68;1.70;;;;;;;;;;5097643;28;20082;-69
2021/05/07 08:46:28;;;;;;;5.53;1.90;;;;;;;;;;5018737;28;20025;-70
2021/05/07 08:48:54;;;;;;;6.25;1.98;;;;;;;;;;5019075;28;20116;-69
2021/05/07 08:51:20;;;;;;;9.73;1.90;;;;;;;;;;5020915;28;20138;-68
2021/05/07 08:53:46;;;;;;;12.30;2.40;;;;;;;;;;5094351;28;20509;-68
2021/05/07 08:56:12;;;;;;;13.70;2.70;;;;;;;;;;5042548;28;20085;-68
2021/05/07 08:58:39;;;;;;;14.52;3.10;;;;;;;;;;5085060;28;20105;-69
2021/05/07 09:01:05;;;;;;;9.15;2.30;;;;;;;;;;5031511;28;20030;-68
2021/05/07 09:03:41;;;;;;;10.30;2.70;;;;;;;;;;5021311;28;20082;-71
2021/05/07 09:06:17;;;;;;;22.08;3.47;;;;;;;;;;5010133;28;20114;-68
2021/05/07 09:08:43;;;;;;;8.98;2.50;;;;;;;;;;5071371;28;20080;-70
2021/05/07 09:11:09;;;;;;;9.15;2.30;;;;;;;;;;5066561;27;20022;-67
2021/05/07 09:13:36;;;;;;;9.35;2.25;;;;;;;;;;5023034;28;20505;-68
2021/05/07 09:16:06;;;;;;;6.93;1.92;;;;;;;;;;5043698;28;20053;-66
2021/05/07 09:18:42;;;;;;;7.68;2.42;;;;;;;;;;5021897;28;20022;-67
2021/05/07 09:21:08;;;;;;;7.57;2.08;;;;;;;;;;5085841;27;20380;-64
2021/05/07 09:23:41;;;;;;;9.63;2.70;;;;;;;;;;5024476;28;20060;-66
2021/05/07 09:26:07;;;;;;;14.10;2.08;;;;;;;;;;5035911;28;20098;-67
2021/05/07 09:28:34;;;;;;;8.60;2.45;;;;;;;;;;5074423;28;20022;-67
2021/05/07 09:31:13;;;;;;;6.18;1.80;;;;;;;;;;5067286;28;20500;-67
2021/05/07 09:33:43;;;;;;;7.82;1.90;;;;;;;;;;5049150;28;20120;-67
2021/05/07 09:36:10;;;;;;;8.02;2.38;;;;;;;;;;5009597;28;20139;-67
2021/05/07 09:38:36;;;;;;;8.32;2.10;;;;;;;;;;5053133;28;20528;-67
2021/05/07 09:41:03;;;;;;;7.03;1.90;;;;;;;;;;5064876;28;20018;-67
2021/05/07 09:43:30;;;;;;;8.77;2.20;;;;;;;;;;5083862;28;20106;-67
2021/05/07 09:45:56;;;;;;;8.93;1.88;;;;;;;;;;5036361;28;20070;-67
2021/05/07 09:48:26;;;;;;;8.05;1.90;;;;;;;;;;5045253;28;20042;-67
2021/05/07 09:51:01;;;;;;;9.45;2.17;;;;;;;;;;5040533;28;20056;-67
2021/05/07 09:53:30;;;;;;;8.13;2.30;;;;;;;;;;5048794;28;20033;-67
2021/05/07 09:55:59;;;;;;;7.70;2.47;;;;;;;;;;5027303;28;20408;-67
2021/05/07 09:58:26;;;;;;;10.32;2.53;;;;;;;;;;5091544;28;20021;-67
2021/05/07 10:00:52;;;;;;;37.20;2.70;;;;;;;;;;5012080;28;20023;-67
2021/05/07 10:03:18;;;;;;;18.00;2.33;;;;;;;;;;4988470;28;20022;-66
2021/05/07 10:05:44;;;;;;;12.98;2.25;;;;;;;;;;4999914;28;20030;-68
2021/05/07 10:08:11;;;;;;;9.55;2.30;;;;;;;;;;5008342;28;20639;-68
2021/05/07 10:10:41;;;;;;;14.18;2.83;;;;;;;;;;5001540;28;20026;-66
2021/05/07 10:13:08;;;;;;;11.18;2.25;;;;;;;;;;5007586;28;20018;-66
2021/05/07 10:15:36;;;;;;;9.57;2.17;;;;;;;;;;5008600;28;20026;-66
2021/05/07 10:18:03;;;;;;;7.22;2.10;;;;;;;;;;5006816;28;20030;-70
2021/05/07 10:20:34;;;;;;;7.88;2.22;;;;;;;;;;5008114;28;20014;-65
2021/05/07 10:23:01;;;;;;;12.57;2.53;;;;;;;;;;5008571;28;20410;-71
2021/05/07 10:25:28;;;;;;;11.10;2.28;;;;;;;;;;5008677;28;20029;-71
2021/05/07 10:27:55;;;;;;;7.30;2.80;;;;;;;;;;5007705;28;20030;-69
2021/05/07 10:30:22;;;;;;;11.30;2.70;;;;;;;;;;5034865;27;20038;-65
2021/05/07 10:32:55;;;;;;;10.75;2.40;;;;;;;;;;5073970;28;20018;-70
2021/05/07 10:35:35;;;;;;;8.20;1.90;;;;;;;;;;5026099;28;20038;-70
2021/05/07 10:38:08;;;;;;;7.53;2.33;;;;;;;;;;5093629;28;20077;-67
2021/05/07 10:40:34;;;;;;;7.65;1.98;;;;;;;;;;5110837;28;20028;-69
2021/05/07 10:43:01;;;;;;;5.90;1.75;;;;;;;;;;5111048;28;20019;-69
2021/05/07 10:45:46;;;;;;;6.28;1.98;;;;;;;;;;5035464;28;20030;-67
2021/05/07 10:48:16;;;;;;;6.35;2.17;;;;;;;;;;5034244;28;20046;-65
2021/05/07 10:50:42;;;;;;;8.38;2.03;;;;;;;;;;5058447;27;20020;-68
2021/05/07 10:53:08;;;;;;;5.53;2.03;;;;;;;;;;5010985;28;20022;-66
2021/05/07 10:55:35;;;;;;;7.70;2.05;;;;;;;;;;5018947;28;20034;-66
2021/05/07 10:58:02;;;;;;;4.13;1.80;;;;;;;;;;5019540;28;20026;-68
2021/05/07 11:00:41;;;;;;;7.13;2.30;;;;;;;;;;5017081;28;20385;-65
2021/05/07 11:03:19;;;;;;;8.38;2.05;;;;;;;;;;4995513;28;20043;-65
2021/05/07 11:05:47;;;;;;;4.65;1.85;;;;;;;;;;5010426;28;20057;-68
2021/05/07 11:08:13;;;;;;;6.85;2.08;;;;;;;;;;5018019;28;20486;-66
2021/05/07 11:10:40;;;;;;;7.18;1.75;;;;;;;;;;5018981;28;20096;-68
2021/05/07 11:13:06;;;;;;;4.53;1.85;;;;;;;;;;5036118;28;20012;-67
2021/05/07 11:15:32;;;;;;;12.52;2.17;;;;;;;;;;5010959;28;20079;-69
2021/05/07 11:18:00;;;;;;;15.90;2.75;;;;;;;;;;5009827;28;20052;-67
2021/05/07 11:20:35;;;;;;;14.70;2.25;;;;;;;;;;5034047;28;20014;-68
2021/05/07 11:23:02;;;;;;;12.75;2.55;;;;;;;;;;5015229;28;20560;-67
2021/05/07 11:25:29;;;;;;;3.25;1.60;;;;;;;;;;5017666;28;20432;-67
2021/05/07 11:27:58;;;;;;;12.30;2.10;;;;;;;;;;5019380;28;20538;-67
2021/05/07 11:30:24;;;;;;;8.63;1.85;;;;;;;;;;5057057;28;20027;-67
2021/05/07 11:32:50;;;;;;;16.17;2.08;;;;;;;;;;5092214;28;20034;-68
2021/05/07 11:35:18;;;;;;;29.35;3.60;;;;;;;;;;5004812;28;20031;-67
2021/05/07 11:37:44;;;;;;;28.75;3.63;;;;;;;;;;4999396;28;20052;-66
2021/05/07 11:40:12;;;;;;;27.40;3.55;;;;;;;;;;4994220;28;20026;-66
2021/05/07 11:42:45;;;;;;;12.20;3.22;;;;;;;;;;5007836;28;20143;-65
2021/05/07 11:45:18;;;;;;;16.52;3.13;;;;;;;;;;5008507;28;20038;-66
2021/05/07 11:47:44;;;;;;;22.60;3.08;;;;;;;;;;5008305;28;20030;-65
2021/05/07 11:50:13;;;;;;;26.48;2.80;;;;;;;;;;5001002;28;20041;-65
2021/05/07 11:52:40;;;;;;;21.40;3.15;;;;;;;;;;4995948;28;20034;-65
2021/05/07 11:55:07;;;;;;;12.60;2.30;;;;;;;;;;4989906;28;20096;-65
2021/05/07 11:57:33;;;;;;;17.88;2.88;;;;;;;;;;5003054;28;20096;-65
2021/05/07 12:00:00;;;;;;;16.52;3.55;;;;;;;;;;5009627;28;20059;-65
2021/05/07 12:02:27;;;;;;;26.98;3.28;;;;;;;;;;5034417;28;20528;-65
2021/05/07 12:04:57;;;;;;;24.65;3.53;;;;;;;;;;5000940;28;20044;-65
2021/05/07 12:07:27;;;;;;;13.82;3.50;;;;;;;;;;5003233;28;20439;-66
2021/05/07 12:09:53;;;;;;;16.48;3.60;;;;;;;;;;5005804;28;20042;-66
2021/05/07 12:12:20;;;;;;;16.40;3.45;;;;;;;;;;5016480;28;20074;-67
2021/05/07 12:14:49;;;;;;;12.00;3.00;;;;;;;;;;5090022;27;20040;-65
2021/05/07 12:17:16;;;;;;;18.73;3.58;;;;;;;;;;5008373;28;20018;-67
2021/05/07 12:19:42;;;;;;;11.77;3.08;;;;;;;;;;5012070;28;20378;-66
2021/05/07 12:22:19;;;;;;;24.42;3.30;;;;;;;;;;5054958;28;20055;-65
2021/05/07 12:24:45;;;;;;;8.40;3.20;;;;;;;;;;5026162;28;20038;-66
2021/05/07 12:27:12;;;;;;;14.77;3.17;;;;;;;;;;5019200;28;20471;-65
2021/05/07 12:29:38;;;;;;;10.43;2.63;;;;;;;;;;5090670;28;20023;-65
2021/05/07 12:32:04;;;;;;;8.85;2.75;;;;;;;;;;5023876;28;20041;-65
2021/05/07 12:34:30;;;;;;;6.40;1.70;;;;;;;;;;5050593;28;20093;-65
2021/05/07 12:37:00;;;;;;;7.55;1.83;;;;;;;;;;5072392;28;20018;-68
2021/05/07 12:39:27;;;;;;;11.65;2.38;;;;;;;;;;5022490;28;20025;-68
2021/05/07 12:41:55;;;;;;;10.43;2.67;;;;;;;;;;5097553;28;20019;-68
2021/05/07 12:44:25;;;;;;;13.20;2.95;;;;;;;;;;5006882;28;20056;-68
2021/05/07 12:46:51;;;;;;;10.60;2.05;;;;;;;;;;5017627;28;20073;-70
2021/05/07 12:49:18;;;;;;;7.47;2.08;;;;;;;;;;5026993;28;20904;-65
2021/05/07 12:51:45;;;;;;;8.60;2.15;;;;;;;;;;5076301;28;20055;-68
2021/05/07 12:54:11;;;;;;;15.63;2.47;;;;;;;;;;5049660;28;20061;-69
2021/05/07 12:56:43;;;;;;;7.75;2.13;;;;;;;;;;5036655;28;20062;-68
2021/05/07 12:59:09;;;;;;;8.98;2.28;;;;;;;;;;5134123;27;20031;-68
2021/05/07 13:01:35;;;;;;;7.68;2.28;;;;;;;;;;5056351;28;20156;-67
2021/05/07 13:04:01;;;;;;;7.18;2.60;;;;;;;;;;5099296;28;20093;-65
2021/05/07 13:06:28;;;;;;;10.02;2.53;;;;;;;;;;5108501;28;20023;-66
2021/05/07 13:08:54;;;;;;;6.93;2.42;;;;;;;;;;5038908;28;20516;-69
2021/05/07 13:11:20;;;;;;;5.93;2.30;;;;;;;;;;5030261;28;20203;-70
2021/05/07 13:13:47;;;;;;;6.60;2.10;;;;;;;;;;5033127;28;20021;-73
2021/05/07 13:16:14;;;;;;;8.60;2.20;;;;;;;;;;5020862;28;20499;-70
2021/05/07 13:18:41;;;;;;;5.60;2.10;;;;;;;;;;5011601;28;20030;-70
2021/05/07 13:21:07;;;;;;;6.30;1.95;;;;;;;;;;5063306;28;20124;-69
2021/05/07 13:23:33;;;;;;;7.78;2.47;;;;;;;;;;5042058;28;20474;-70
2021/05/07 13:25:59;;;;;;;9.40;1.80;;;;;;;;;;5027981;28;20034;-70
2021/05/07 13:28:25;;;;;;;9.70;2.00;;;;;;;;;;5092557;28;20118;-69
2021/05/07 13:30:51;;;;;;;5.07;2.13;;;;;;;;;;5052095;28;20028;-68
2021/05/07 13:33:23;;;;;;;5.07;1.75;;;;;;;;;;5107332;28;20433;-69
2021/05/07 13:35:49;;;;;;;6.53;1.60;;;;;;;;;;5039899;28;20511;-70
2021/05/07 13:38:15;;;;;;;4.32;1.80;;;;;;;;;;5074843;28;20480;-69
2021/05/07 13:40:41;;;;;;;5.20;1.83;;;;;;;;;;5076425;28;20022;-71
2021/05/07 13:43:07;;;;;;;7.93;2.22;;;;;;;;;;5036250;27;20033;-69
2021/05/07 13:45:36;;;;;;;5.50;1.58;;;;;;;;;;5082367;28;20046;-70
2021/05/07 13:48:02;;;;;;;5.38;1.63;;;;;;;;;;5038333;28;20018;-69
2021/05/07 13:50:28;;;;;;;3.88;1.85;;;;;;;;;;5105480;28;20122;-69
2021/05/07 13:52:54;;;;;;;6.43;1.70;;;;;;;;;;5019041;28;20086;-70
2021/05/07 13:55:20;;;;;;;6.03;1.48;;;;;;;;;;5072933;28;20020;-68
2021/05/07 13:57:46;;;;;;;7.85;1.70;;;;;;;;;;5041770;28;20022;-69
2021/05/07 14:00:13;;;;;;;5.97;1.45;;;;;;;;;;5047351;28;20535;-69
2021/05/07 14:02:39;;;;;;;7.95;1.60;;;;;;;;;;5017666;28;20040;-70
2021/05/07 14:05:07;;;;;;;3.00;1.33;;;;;;;;;;5010199;28;20033;-69
2021/05/07 14:07:34;;;;;;;6.25;1.50;;;;;;;;;;5015839;28;20026;-68
2021/05/07 14:10:01;;;;;;;4.68;1.55;;;;;;;;;;5010465;28;20026;-69
2021/05/07 14:12:27;;;;;;;3.25;1.27;;;;;;;;;;5033305;28;20020;-69
2021/05/07 14:14:53;;;;;;;6.38;1.40;;;;;;;;;;5005154;28;20026;-67
2021/05/07 14:17:19;;;;;;;4.95;1.50;;;;;;;;;;5069559;28;20031;-71
2021/05/07 14:19:45;;;;;;;12.07;1.70;;;;;;;;;;5104566;28;20093;-69
2021/05/07 14:22:11;;;;;;;17.33;2.38;;;;;;;;;;5012541;28;20371;-70
2021/05/07 14:24:38;;;;;;;5.03;1.48;;;;;;;;;;5036971;28;20015;-71
2021/05/07 14:27:04;;;;;;;4.05;1.33;;;;;;;;;;5007641;28;20045;-72
2021/05/07 14:29:30;;;;;;;5.95;1.73;;;;;;;;;;5008997;28;20041;-69
2021/05/07 14:31:56;;;;;;;5.20;1.45;;;;;;;;;;5093621;28;20020;-70
2021/05/07 14:34:23;;;;;;;6.40;1.50;;;;;;;;;;5105807;28;20096;-70
2021/05/07 14:36:49;;;;;;;5.32;1.60;;;;;;;;;;5105579;28;20028;-68
2021/05/07 14:39:15;;;;;;;4.28;1.27;;;;;;;;;;5105152;28;20020;-68
2021/05/07 14:41:41;;;;;;;8.77;1.45;;;;;;;;;;5109667;28;20538;-71